createdAt,value
2018-06-08T04:10:34.312Z,1260
2018-06-08T04:10:59.795Z,1256
2018-06-08T04:11:25.354Z,1256
2018-06-08T04:11:50.957Z,1248
2018-06-08T04:12:16.510Z,1244
2018-06-08T04:12:41.952Z,1236
2018-06-08T04:13:07.470Z,1232
2018-06-08T04:13:32.942Z,1224
2018-06-08T04:13:58.436Z,1216
2018-06-08T04:14:24.044Z,1212
2018-06-08T04:14:49.890Z,1204
2018-06-08T04:15:15.393Z,1192
2018-06-08T04:15:40.865Z,1184
2018-06-08T04:16:06.300Z,1168
2018-06-08T04:16:31.912Z,1148
2018-06-08T04:16:57.314Z,1132
2018-06-08T04:17:22.783Z,1108
2018-06-08T04:17:48.372Z,1088
2018-06-08T04:18:13.780Z,1068
2018-06-08T04:18:39.246Z,1044
2018-06-08T04:19:04.630Z,1028
2018-06-08T04:19:30.228Z,1004
2018-06-08T04:19:55.658Z,988
2018-06-08T04:20:21.140Z,968
2018-06-08T04:20:46.556Z,956
2018-06-08T04:21:12.160Z,944
2018-06-08T04:21:37.722Z,932
2018-06-08T04:22:03.172Z,924
2018-06-08T04:22:28.633Z,920
2018-06-08T04:22:54.173Z,912
2018-06-08T04:23:19.534Z,912
2018-06-08T04:23:45.111Z,912
2018-06-08T04:24:10.624Z,908
2018-06-08T04:24:36.125Z,904
2018-06-08T04:25:01.686Z,896
2018-06-08T04:25:27.139Z,884
2018-06-08T04:25:52.542Z,868
2018-06-08T04:26:18.045Z,856
2018-06-08T04:26:43.524Z,840
2018-06-08T04:27:09.104Z,824
2018-06-08T04:27:34.583Z,804
2018-06-08T04:28:00.020Z,788
2018-06-08T04:28:25.585Z,768
2018-06-08T04:28:51.144Z,748
2018-06-08T04:29:16.566Z,728
2018-06-08T04:29:42.065Z,708
2018-06-08T04:30:07.606Z,684
2018-06-08T04:30:33.172Z,664
2018-06-08T04:30:58.574Z,644
2018-06-08T04:31:24.068Z,620
2018-06-08T04:31:49.481Z,600
2018-06-08T04:32:15.163Z,584
2018-06-08T04:32:40.673Z,560
2018-06-08T04:33:06.100Z,548
2018-06-08T04:33:31.494Z,532
2018-06-08T04:33:56.965Z,528
2018-06-08T04:34:22.463Z,520
2018-06-08T04:34:47.957Z,524
2018-06-08T04:35:13.418Z,524
2018-06-08T04:35:38.849Z,528
2018-06-08T04:36:04.358Z,532
2018-06-08T04:36:29.845Z,532
2018-06-08T04:36:55.371Z,540
2018-06-08T04:37:20.933Z,548
2018-06-08T04:37:46.402Z,548
2018-06-08T04:38:11.828Z,552
2018-06-08T04:38:37.325Z,568
2018-06-08T04:39:02.791Z,580
2018-06-08T04:39:28.275Z,592
2018-06-08T04:39:53.789Z,592
2018-06-08T04:40:19.275Z,604
2018-06-08T04:40:44.775Z,612
2018-06-08T04:41:54.281Z,652
2018-06-08T04:42:19.777Z,652
2018-06-08T04:42:45.344Z,652
2018-06-08T04:43:11.121Z,656
2018-06-08T04:43:36.569Z,656
2018-06-08T04:44:02.056Z,656
2018-06-08T04:44:27.541Z,656
2018-06-08T04:44:53.014Z,652
2018-06-08T04:45:18.545Z,656
2018-06-08T04:45:44.038Z,648
2018-06-08T04:46:09.757Z,644
2018-06-08T04:46:35.237Z,644
2018-06-08T04:47:00.730Z,640
2018-06-08T04:47:26.182Z,632
2018-06-08T04:47:51.707Z,632
2018-06-08T04:48:17.364Z,628
2018-06-08T04:48:42.834Z,628
2018-06-08T04:49:08.441Z,628
2018-06-08T04:49:33.964Z,628
2018-06-08T04:49:59.409Z,636
2018-06-08T04:50:25.054Z,640
2018-06-08T04:50:50.505Z,648
2018-06-08T04:51:16.108Z,652
2018-06-08T04:51:41.661Z,656
2018-06-08T04:52:07.082Z,668
2018-06-08T04:52:32.558Z,656
2018-06-08T04:52:58.047Z,684
2018-06-08T04:53:23.555Z,712
2018-06-08T04:53:49.004Z,716
2018-06-08T04:54:14.560Z,736
2018-06-08T04:54:40.225Z,760
2018-06-08T04:55:05.917Z,780
2018-06-08T04:55:31.441Z,808
2018-06-08T04:55:56.901Z,816
2018-06-08T04:56:22.362Z,848
2018-06-08T04:56:47.912Z,876
2018-06-08T04:57:13.514Z,928
2018-06-08T04:57:39.003Z,964
2018-06-08T04:58:04.453Z,1028
2018-06-08T04:58:30.087Z,1108
2018-06-08T04:58:55.584Z,1192
2018-06-08T04:59:21.119Z,1288
2018-06-08T04:59:46.601Z,1388
2018-06-08T05:00:12.044Z,1496
2018-06-08T05:00:37.532Z,1612
2018-06-08T05:01:03.069Z,1744
2018-06-08T05:01:28.556Z,1896
2018-06-08T05:01:54.054Z,2040
2018-06-08T05:02:19.527Z,2184
2018-06-08T05:02:45.061Z,2320
2018-06-08T05:03:10.506Z,2424
2018-06-08T05:03:35.992Z,2532
2018-06-08T05:04:01.482Z,2624
2018-06-08T05:04:27.039Z,2712
2018-06-08T05:04:52.502Z,2792
2018-06-08T05:05:17.957Z,2892
2018-06-08T05:05:43.492Z,2996
2018-06-08T05:06:09.003Z,3104
2018-06-08T05:06:34.460Z,3212
2018-06-08T05:06:59.908Z,3332
2018-06-08T05:07:25.769Z,3476
2018-06-08T05:07:51.650Z,3648
2018-06-08T05:08:17.501Z,3824
2018-06-08T05:08:43.272Z,3984
2018-06-08T05:09:08.762Z,4132
2018-06-08T05:09:34.276Z,4268
2018-06-08T05:09:59.982Z,4408
2018-06-08T05:10:25.446Z,4556
2018-06-08T05:10:51.357Z,4720
2018-06-08T05:11:16.854Z,4880
2018-06-08T05:11:42.701Z,5044
2018-06-08T05:12:08.813Z,5208
2018-06-08T05:12:34.520Z,5380
2018-06-08T05:13:00.084Z,5548
2018-06-08T05:13:25.505Z,5688
2018-06-08T05:13:51.229Z,5792
2018-06-08T05:14:17.058Z,5896
2018-06-08T05:14:43.270Z,6024
2018-06-08T05:15:08.745Z,6132
2018-06-08T05:15:34.484Z,6236
2018-06-08T05:16:00.228Z,6316
2018-06-08T05:16:26.429Z,6392
2018-06-08T05:16:51.869Z,6488
2018-06-08T05:17:17.373Z,6524
2018-06-08T05:17:42.857Z,6548
2018-06-08T05:18:08.333Z,6564
2018-06-08T05:18:33.851Z,6568
2018-06-08T05:18:59.320Z,6552
2018-06-08T05:19:24.826Z,6508
2018-06-08T05:19:50.421Z,6460
2018-06-08T05:20:15.922Z,6384
2018-06-08T05:20:41.521Z,6280
2018-06-08T05:21:07.144Z,6172
2018-06-08T05:21:33.639Z,6044
2018-06-08T05:21:58.959Z,5892
2018-06-08T05:22:24.448Z,5728
2018-06-08T05:22:49.941Z,5556
2018-06-08T05:23:15.877Z,5384
2018-06-08T05:23:41.465Z,5236
2018-06-08T05:24:07.011Z,5076
2018-06-08T05:24:32.519Z,4908
2018-06-08T05:24:58.033Z,4744
2018-06-08T05:25:23.634Z,4568
2018-06-08T05:25:49.110Z,4396
2018-06-08T05:26:14.558Z,4228
2018-06-08T05:26:40.057Z,4064
2018-06-08T05:27:05.584Z,3916
2018-06-08T05:27:31.008Z,3780
2018-06-08T05:27:56.519Z,3656
2018-06-08T05:28:21.989Z,3556
2018-06-08T05:28:47.468Z,3476
2018-06-08T05:29:12.983Z,3420
2018-06-08T05:29:38.450Z,3376
2018-06-08T05:30:03.941Z,3344
2018-06-08T05:30:29.410Z,3312
2018-06-08T05:30:54.963Z,3284
2018-06-08T05:31:20.427Z,3244
2018-06-08T05:31:46.072Z,3208
2018-06-08T05:32:11.567Z,3176
2018-06-08T05:32:37.094Z,3156
2018-06-08T05:33:02.539Z,3140
2018-06-08T05:33:28.078Z,3120
2018-06-08T05:33:53.719Z,3112
2018-06-08T05:34:19.154Z,3116
2018-06-08T05:34:44.719Z,3152
2018-06-08T05:35:10.192Z,3192
2018-06-08T05:35:35.748Z,3224
2018-06-08T05:36:01.302Z,3268
2018-06-08T05:36:26.763Z,3324
2018-06-08T05:36:52.300Z,3384
2018-06-08T05:37:17.796Z,3448
2018-06-08T05:37:43.235Z,3524
2018-06-08T05:38:08.708Z,3604
2018-06-08T05:38:34.192Z,3692
2018-06-08T05:38:59.714Z,3792
2018-06-08T05:40:08.878Z,4092
2018-06-08T05:40:34.370Z,4196
2018-06-08T05:40:59.891Z,4280
2018-06-08T05:41:25.385Z,4352
2018-06-08T05:41:50.880Z,4412
2018-06-08T05:42:16.356Z,4456
2018-06-08T05:42:41.838Z,4484
2018-06-08T05:43:07.377Z,4500
2018-06-08T05:43:32.904Z,4512
2018-06-08T05:43:58.331Z,4528
2018-06-08T05:44:23.849Z,4532
2018-06-08T05:44:49.361Z,4536
2018-06-08T05:45:14.837Z,4560
2018-06-08T05:45:40.547Z,4588
2018-06-08T05:46:05.914Z,4628
2018-06-08T05:46:31.413Z,4668
2018-06-08T05:46:56.982Z,4700
2018-06-08T05:47:22.514Z,4732
2018-06-08T05:47:47.999Z,4768
2018-06-08T05:48:13.425Z,4784
2018-06-08T05:48:38.949Z,4780
2018-06-08T05:49:04.515Z,4760
2018-06-08T05:49:29.950Z,4728
2018-06-08T05:49:55.389Z,4696
2018-06-08T05:50:20.881Z,4676
2018-06-08T05:50:46.392Z,4660
2018-06-08T05:51:11.874Z,4664
2018-06-08T05:51:37.413Z,4680
2018-06-08T05:52:02.925Z,4704
2018-06-08T05:52:28.369Z,4720
2018-06-08T05:52:53.809Z,4744
2018-06-08T05:53:19.266Z,4780
2018-06-08T05:53:44.786Z,4816
2018-06-08T05:54:10.234Z,4852
2018-06-08T05:54:35.732Z,4876
2018-06-08T05:55:01.153Z,4896
2018-06-08T05:55:26.664Z,4908
2018-06-08T05:55:52.139Z,4908
2018-06-08T05:56:17.593Z,4904
2018-06-08T05:56:43.227Z,4900
2018-06-08T05:57:46.861Z,4920
2018-06-08T05:58:12.357Z,4928
2018-06-08T05:58:37.856Z,4932
2018-06-08T05:59:03.397Z,4948
2018-06-08T05:59:28.884Z,4968
2018-06-08T05:59:54.368Z,4988
2018-06-08T06:00:19.862Z,5012
2018-06-08T06:00:45.322Z,5036
2018-06-08T06:01:10.865Z,5064
2018-06-08T06:01:36.347Z,5096
2018-06-08T06:02:01.854Z,5124
2018-06-08T06:02:27.360Z,5156
2018-06-08T06:02:53.210Z,5192
2018-06-08T06:03:18.861Z,5224
2018-06-08T06:03:44.298Z,5260
2018-06-08T06:04:09.819Z,5296
2018-06-08T06:04:35.487Z,5332
2018-06-08T06:05:01.024Z,5368
2018-06-08T06:05:26.662Z,5404
2018-06-08T06:05:52.256Z,5452
2018-06-08T06:07:07.418Z,5592
2018-06-08T06:07:33.080Z,5632
2018-06-08T06:07:58.565Z,5680
2018-06-08T06:08:24.311Z,5712
2018-06-08T06:08:49.692Z,5748
2018-06-08T06:09:15.512Z,5784
2018-06-08T06:09:41.007Z,5816
2018-06-08T06:10:06.494Z,5860
2018-06-08T06:10:32.017Z,5908
2018-06-08T06:10:57.491Z,5964
2018-06-08T06:11:23.015Z,6032
2018-06-08T06:11:48.518Z,6112
2018-06-08T06:12:14.020Z,6184
2018-06-08T06:12:39.496Z,6256
2018-06-08T06:13:05.043Z,6324
2018-06-08T06:13:30.520Z,6376
2018-06-08T06:14:39.262Z,6488
2018-06-08T06:15:04.762Z,6508
2018-06-08T06:15:30.267Z,6524
2018-06-08T06:15:55.769Z,6528
2018-06-08T06:16:21.295Z,6524
2018-06-08T06:16:46.858Z,6528
2018-06-08T06:17:12.326Z,6544
2018-06-08T06:17:37.846Z,6572
2018-06-08T06:18:03.305Z,7040
2018-06-08T06:18:28.785Z,7224
2018-06-08T06:18:54.277Z,6760
2018-06-08T06:19:19.773Z,6768
2018-06-08T06:19:45.247Z,6840
2018-06-08T06:20:10.720Z,6940
2018-06-08T06:20:36.224Z,7064
2018-06-08T06:21:01.742Z,7000
2018-06-08T06:21:27.170Z,7008
2018-06-08T06:21:52.640Z,6952
2018-06-08T06:22:18.115Z,6780
2018-06-08T06:22:43.682Z,6748
2018-06-08T06:23:09.123Z,6644
2018-06-08T06:23:34.613Z,6564
2018-06-08T06:24:00.063Z,6392
2018-06-08T06:24:25.558Z,6268
2018-06-08T06:24:51.054Z,6176
2018-06-08T06:25:16.516Z,6108
2018-06-08T06:25:42.105Z,6084
2018-06-08T06:26:07.607Z,6024
2018-06-08T06:26:33.104Z,5984
2018-06-08T06:26:58.544Z,5968
2018-06-08T06:27:24.032Z,5964
2018-06-08T06:27:49.534Z,5968
2018-06-08T06:28:15.003Z,5992
2018-06-08T06:28:40.540Z,6020
2018-06-08T06:29:06.074Z,6040
2018-06-08T06:29:31.585Z,6080
2018-06-08T06:29:57.092Z,6144
2018-06-08T06:30:22.566Z,6212
2018-06-08T06:30:48.119Z,6280
2018-06-08T06:31:13.624Z,6356
2018-06-08T06:31:39.113Z,6432
2018-06-08T06:32:04.617Z,6500
2018-06-08T06:32:30.118Z,6576
2018-06-08T06:32:55.615Z,6660
2018-06-08T06:33:21.070Z,6736
2018-06-08T06:33:46.574Z,6816
2018-06-08T06:34:12.105Z,6880
2018-06-08T06:34:37.818Z,6948
2018-06-08T06:35:03.351Z,7008
2018-06-08T06:35:28.981Z,7068
2018-06-08T06:35:54.513Z,7124
2018-06-08T06:36:19.996Z,7180
2018-06-08T06:36:45.511Z,7232
2018-06-08T06:37:11.041Z,7268
2018-06-08T06:37:36.547Z,7304
2018-06-08T06:38:02.034Z,7340
2018-06-08T06:38:27.555Z,7372
2018-06-08T06:38:53.081Z,7392
2018-06-08T06:39:18.583Z,7416
2018-06-08T06:39:44.048Z,7420
2018-06-08T06:40:09.528Z,7428
2018-06-08T06:40:34.984Z,7424
2018-06-08T06:41:00.478Z,7416
2018-06-08T06:41:25.958Z,7416
2018-06-08T06:41:51.490Z,7412
2018-06-08T06:42:17.045Z,7400
2018-06-08T06:42:42.505Z,7388
2018-06-08T06:43:07.976Z,7384
2018-06-08T06:43:33.495Z,7388
2018-06-08T06:43:58.986Z,7404
2018-06-08T06:44:24.492Z,7432
2018-06-08T06:44:50.001Z,7456
2018-06-08T06:45:15.451Z,7472
2018-06-08T06:45:40.931Z,7484
2018-06-08T06:46:06.434Z,7484
2018-06-08T06:46:31.917Z,7484
2018-06-08T06:46:57.534Z,7492
2018-06-08T06:47:23.232Z,7508
2018-06-08T06:47:48.689Z,7524
2018-06-08T06:48:14.215Z,7532
2018-06-08T06:48:39.706Z,7552
2018-06-08T06:49:05.229Z,7576
2018-06-08T06:49:30.706Z,7612
2018-06-08T06:49:56.194Z,7664
2018-06-08T06:50:21.678Z,7732
2018-06-08T06:50:47.212Z,7800
2018-06-08T06:51:12.710Z,7868
2018-06-08T06:51:38.213Z,7932
2018-06-08T06:52:03.746Z,8004
2018-06-08T06:52:29.296Z,8108
2018-06-08T06:52:54.810Z,8232
2018-06-08T06:53:20.342Z,8364
2018-06-08T06:53:45.868Z,8504
2018-06-08T06:54:11.319Z,8640
2018-06-08T06:54:36.776Z,8788
2018-06-08T06:55:02.235Z,8924
2018-06-08T06:55:27.821Z,9052
2018-06-08T06:55:54.193Z,9208
2018-06-08T06:56:19.813Z,9312
2018-06-08T06:56:45.260Z,9436
2018-06-08T06:57:10.724Z,9560
2018-06-08T06:57:36.228Z,9684
2018-06-08T06:58:01.756Z,9796
2018-06-08T06:58:27.234Z,9896
2018-06-08T06:58:52.741Z,9984
2018-06-08T06:59:18.249Z,10056
2018-06-08T06:59:43.721Z,10112
2018-06-08T07:00:09.241Z,10152
2018-06-08T07:00:34.709Z,10180
2018-06-08T07:01:00.210Z,10196
2018-06-08T07:01:25.666Z,10196
2018-06-08T07:01:51.108Z,10172
2018-06-08T07:02:16.603Z,10140
2018-06-08T07:02:42.026Z,10092
2018-06-08T07:03:07.580Z,10032
2018-06-08T07:03:32.980Z,9964
2018-06-08T07:03:58.464Z,9888
2018-06-08T07:04:23.952Z,9792
2018-06-08T07:04:49.460Z,9688
2018-06-08T07:05:14.879Z,9564
2018-06-08T07:05:40.351Z,9448
2018-06-08T07:06:05.838Z,9328
2018-06-08T07:06:31.324Z,9212
2018-06-08T07:06:56.758Z,9092
2018-06-08T07:07:22.231Z,8968
2018-06-08T07:07:47.669Z,8844
2018-06-08T07:08:13.152Z,8728
2018-06-08T07:08:38.626Z,8612
2018-06-08T07:09:04.106Z,8504
2018-06-08T07:09:29.609Z,8396
2018-06-08T07:09:55.048Z,8300
2018-06-08T07:10:20.526Z,8204
2018-06-08T07:10:45.999Z,8124
2018-06-08T07:11:11.485Z,8056
2018-06-08T07:11:36.942Z,7996
2018-06-08T07:12:02.425Z,7956
2018-06-08T07:12:27.887Z,7924
2018-06-08T07:12:53.341Z,7912
2018-06-08T07:13:18.844Z,7908
2018-06-08T07:13:44.338Z,7908
2018-06-08T07:14:09.784Z,7924
2018-06-08T07:14:35.238Z,7956
2018-06-08T07:15:00.702Z,7988
2018-06-08T07:15:26.195Z,8036
2018-06-08T07:15:51.675Z,8092
2018-06-08T07:16:17.157Z,8164
2018-06-08T07:16:42.600Z,8232
2018-06-08T07:17:08.067Z,8300
2018-06-08T07:17:33.528Z,8388
2018-06-08T07:17:59.003Z,8460
2018-06-08T07:18:24.526Z,8532
2018-06-08T07:18:50.003Z,8572
2018-06-08T07:19:15.465Z,8600
2018-06-08T07:19:40.941Z,8612
2018-06-08T07:20:06.382Z,8620
2018-06-08T07:20:31.815Z,8620
2018-06-08T07:20:57.309Z,8616
2018-06-08T07:21:22.782Z,8600
2018-06-08T07:21:48.288Z,8580
2018-06-08T07:22:13.798Z,8560
2018-06-08T07:22:39.320Z,8536
2018-06-08T07:23:04.772Z,8512
2018-06-08T07:23:30.211Z,8484
2018-06-08T07:23:55.656Z,8464
2018-06-08T07:24:21.207Z,8452
2018-06-08T07:24:46.626Z,8436
2018-06-08T07:25:12.131Z,8428
2018-06-08T07:25:37.560Z,8424
2018-06-08T07:26:03.057Z,8416
2018-06-08T07:26:28.464Z,8408
2018-06-08T07:26:53.910Z,8400
2018-06-08T07:27:19.422Z,8396
2018-06-08T07:27:44.885Z,8396
2018-06-08T07:28:10.369Z,8396
2018-06-08T07:28:35.927Z,8404
2018-06-08T07:29:01.329Z,8408
2018-06-08T07:29:26.812Z,8408
2018-06-08T07:29:52.291Z,8420
2018-06-08T07:30:17.801Z,8420
2018-06-08T07:30:43.224Z,8416
2018-06-08T07:31:08.703Z,8404
2018-06-08T07:31:34.188Z,8396
2018-06-08T07:31:59.668Z,8356
2018-06-08T07:32:25.107Z,8316
2018-06-08T07:32:50.559Z,8268
2018-06-08T07:33:16.043Z,8224
2018-06-08T07:33:41.502Z,8164
2018-06-08T07:34:06.992Z,8112
2018-06-08T07:34:32.444Z,8056
2018-06-08T07:34:58.029Z,8004
2018-06-08T07:35:23.467Z,7956
2018-06-08T07:35:48.917Z,7916
2018-06-08T07:36:14.416Z,7880
2018-06-08T07:36:39.873Z,7864
2018-06-08T07:37:05.328Z,7852
2018-06-08T07:37:30.803Z,7852
2018-06-08T07:37:56.295Z,7856
2018-06-08T07:38:21.798Z,7864
2018-06-08T07:38:47.252Z,7868
2018-06-08T07:39:12.709Z,7872
2018-06-08T07:39:38.289Z,7884
2018-06-08T07:40:03.817Z,7896
2018-06-08T07:40:29.202Z,7908
2018-06-08T07:40:54.673Z,7920
2018-06-08T07:41:20.278Z,7940
2018-06-08T07:41:45.658Z,7968
2018-06-08T07:42:11.159Z,8004
2018-06-08T07:42:36.632Z,8068
2018-06-08T07:43:02.048Z,8152
2018-06-08T07:43:27.544Z,8260
2018-06-08T07:43:53.112Z,8384
2018-06-08T07:44:18.555Z,8516
2018-06-08T07:44:44.082Z,8664
2018-06-08T07:45:09.487Z,8820
2018-06-08T07:45:34.936Z,9000
2018-06-08T07:46:00.437Z,9168
2018-06-08T07:46:25.944Z,9332
2018-06-08T07:46:51.482Z,9488
2018-06-08T07:47:16.907Z,9608
2018-06-08T07:47:42.345Z,9700
2018-06-08T07:48:07.845Z,9744
2018-06-08T07:48:33.300Z,9776
2018-06-08T07:48:58.797Z,9792
2018-06-08T07:49:24.254Z,9796
2018-06-08T07:49:49.715Z,9772
2018-06-08T07:50:15.166Z,9740
2018-06-08T07:50:40.633Z,9708
2018-06-08T07:51:06.133Z,9664
2018-06-08T07:51:31.618Z,9612
2018-06-08T07:51:57.058Z,9540
2018-06-08T07:52:22.534Z,9456
2018-06-08T07:52:48.019Z,9364
2018-06-08T07:53:13.510Z,9268
2018-06-08T07:53:38.964Z,9164
2018-06-08T07:54:04.445Z,9064
2018-06-08T07:54:29.952Z,8948
2018-06-08T07:54:55.412Z,8856
2018-06-08T07:55:20.942Z,8776
2018-06-08T07:55:46.414Z,8692
2018-06-08T07:56:11.889Z,8604
2018-06-08T07:56:37.399Z,8476
2018-06-08T07:57:02.875Z,8380
2018-06-08T07:57:28.307Z,8296
2018-06-08T07:57:53.786Z,8212
2018-06-08T07:58:19.339Z,8124
2018-06-08T07:58:44.759Z,8024
2018-06-08T07:59:10.232Z,7928
2018-06-08T07:59:35.750Z,7840
2018-06-08T08:00:01.223Z,7748
2018-06-08T08:00:26.676Z,7668
2018-06-08T08:00:52.124Z,7596
2018-06-08T08:01:17.596Z,7528
2018-06-08T08:01:43.152Z,7472
2018-06-08T08:02:08.534Z,7428
2018-06-08T08:02:34.019Z,7384
2018-06-08T08:02:59.496Z,7344
2018-06-08T08:03:24.917Z,7300
2018-06-08T08:03:50.391Z,7264
2018-06-08T08:04:15.851Z,7232
2018-06-08T08:04:41.382Z,7204
2018-06-08T08:05:06.834Z,7180
2018-06-08T08:05:32.339Z,7164
2018-06-08T08:05:57.790Z,7156
2018-06-08T08:06:23.227Z,7152
2018-06-08T08:06:48.751Z,7160
2018-06-08T08:07:14.133Z,7164
2018-06-08T08:07:39.621Z,7188
2018-06-08T08:08:05.175Z,7208
2018-06-08T08:08:30.572Z,7228
2018-06-08T08:08:56.024Z,7240
2018-06-08T08:09:21.492Z,7252
2018-06-08T08:09:46.983Z,7264
2018-06-08T08:10:12.433Z,7276
2018-06-08T08:10:37.907Z,7292
2018-06-08T08:11:03.393Z,7316
2018-06-08T08:11:28.884Z,7340
2018-06-08T08:11:54.367Z,7364
2018-06-08T08:12:19.861Z,7364
2018-06-08T08:12:45.366Z,7364
2018-06-08T08:13:10.790Z,7360
2018-06-08T08:13:36.259Z,7364
2018-06-08T08:14:01.683Z,7340
2018-06-08T08:14:27.169Z,7316
2018-06-08T08:14:52.640Z,7292
2018-06-08T08:15:18.172Z,7264
2018-06-08T08:15:43.675Z,7248
2018-06-08T08:16:09.132Z,7240
2018-06-08T08:16:34.671Z,7252
2018-06-08T08:17:00.142Z,7276
2018-06-08T08:17:25.649Z,7312
2018-06-08T08:17:51.094Z,7352
2018-06-08T08:18:16.585Z,7404
2018-06-08T08:18:42.121Z,7452
2018-06-08T08:19:07.548Z,7508
2018-06-08T08:19:33.031Z,7552
2018-06-08T08:19:58.457Z,7588
2018-06-08T08:20:23.957Z,7608
2018-06-08T08:20:49.426Z,7620
2018-06-08T08:21:14.999Z,7620
2018-06-08T08:21:40.485Z,7604
2018-06-08T08:22:05.987Z,7576
2018-06-08T08:22:31.470Z,7528
2018-06-08T08:22:57.010Z,7464
2018-06-08T08:23:22.431Z,7368
2018-06-08T08:23:47.899Z,7240
2018-06-08T08:24:13.317Z,7088
2018-06-08T08:24:38.807Z,6912
2018-06-08T08:25:04.243Z,6736
2018-06-08T08:25:29.717Z,6560
2018-06-08T08:25:55.168Z,6392
2018-06-08T08:26:20.703Z,6228
2018-06-08T08:26:46.186Z,6076
2018-06-08T08:27:11.671Z,5948
2018-06-08T08:27:37.121Z,5832
2018-06-08T08:28:02.806Z,5744
2018-06-08T08:28:28.302Z,5664
2018-06-08T08:28:53.796Z,5604
2018-06-08T08:29:19.275Z,5556
2018-06-08T08:29:44.767Z,5524
2018-06-08T08:30:10.249Z,5496
2018-06-08T08:30:35.689Z,5460
2018-06-08T08:31:01.194Z,5420
2018-06-08T08:31:26.657Z,5376
2018-06-08T08:31:52.174Z,5332
2018-06-08T08:32:17.685Z,5284
2018-06-08T08:32:43.241Z,5236
2018-06-08T08:33:08.697Z,5188
2018-06-08T08:33:34.184Z,5156
2018-06-08T08:33:59.665Z,5128
2018-06-08T08:34:25.234Z,5108
2018-06-08T08:34:50.754Z,5096
2018-06-08T08:35:16.164Z,5088
2018-06-08T08:35:41.615Z,5084
2018-06-08T08:36:07.084Z,5072
2018-06-08T08:36:32.607Z,5068
2018-06-08T08:36:58.107Z,5064
2018-06-08T08:37:23.636Z,5060
2018-06-08T08:37:49.121Z,5044
2018-06-08T08:38:14.583Z,5040
2018-06-08T08:38:40.068Z,5040
2018-06-08T08:39:05.538Z,5016
2018-06-08T08:39:31.035Z,5000
2018-06-08T08:39:56.509Z,4984
2018-06-08T08:40:21.928Z,4968
2018-06-08T08:40:47.374Z,4956
2018-06-08T08:41:12.941Z,4928
2018-06-08T08:41:38.439Z,4912
2018-06-08T08:42:03.901Z,4904
2018-06-08T08:42:29.364Z,4900
2018-06-08T08:42:54.910Z,4888
2018-06-08T08:43:20.287Z,4880
2018-06-08T08:43:45.806Z,4880
2018-06-08T08:44:11.266Z,4896
2018-06-08T08:44:36.828Z,4916
2018-06-08T08:45:02.309Z,4940
2018-06-08T08:45:27.756Z,4964
2018-06-08T08:45:53.238Z,4988
2018-06-08T08:46:18.724Z,5008
2018-06-08T08:46:44.206Z,5024
2018-06-08T08:47:09.656Z,5044
2018-06-08T08:47:35.177Z,5060
2018-06-08T08:48:00.602Z,5072
2018-06-08T08:48:26.118Z,5084
2018-06-08T08:48:51.584Z,5096
2018-06-08T08:49:17.065Z,5116
2018-06-08T08:49:42.592Z,5140
2018-06-08T08:50:08.039Z,5176
2018-06-08T08:50:33.546Z,5220
2018-06-08T08:50:58.991Z,5268
2018-06-08T08:51:24.489Z,5320
2018-06-08T08:51:49.974Z,5372
2018-06-08T08:52:15.472Z,5428
2018-06-08T08:52:40.957Z,5496
2018-06-08T08:53:06.439Z,5572
2018-06-08T08:53:31.915Z,5636
2018-06-08T08:53:57.375Z,5756
2018-06-08T08:54:22.860Z,5860
2018-06-08T08:54:48.385Z,5968
2018-06-08T08:55:13.860Z,6076
2018-06-08T08:55:39.313Z,6208
2018-06-08T08:56:04.797Z,6316
2018-06-08T08:56:30.256Z,6420
2018-06-08T08:56:55.887Z,6520
2018-06-08T08:57:21.250Z,6616
2018-06-08T08:57:46.702Z,6708
2018-06-08T08:58:12.156Z,6800
2018-06-08T08:58:37.643Z,6888
2018-06-08T08:59:03.082Z,6968
2018-06-08T08:59:28.653Z,7040
2018-06-08T08:59:54.071Z,7116
2018-06-08T09:00:19.556Z,7176
2018-06-08T09:00:45.016Z,7232
2018-06-08T09:01:10.488Z,7288
2018-06-08T09:01:36.026Z,7344
2018-06-08T09:02:01.652Z,7392
2018-06-08T09:03:06.303Z,7568
2018-06-08T09:03:31.941Z,7640
2018-06-08T09:03:57.494Z,7708
2018-06-08T09:04:22.961Z,7780
2018-06-08T09:04:48.423Z,7836
2018-06-08T09:05:13.922Z,7884
2018-06-08T09:05:39.621Z,7928
2018-06-08T09:06:05.125Z,7960
2018-06-08T09:06:30.613Z,7972
2018-06-08T09:06:56.112Z,7968
2018-06-08T09:07:21.600Z,7976
2018-06-08T09:07:47.396Z,7976
2018-06-08T09:08:13.016Z,7964
2018-06-08T09:08:38.804Z,7932
2018-06-08T09:09:04.222Z,7924
2018-06-08T09:09:29.719Z,7948
2018-06-08T09:09:55.218Z,8004
2018-06-08T09:10:20.700Z,8060
2018-06-08T09:10:46.207Z,8172
2018-06-08T09:11:11.664Z,8320
2018-06-08T09:12:26.226Z,8696
2018-06-08T09:12:51.734Z,8800
2018-06-08T09:13:17.211Z,8880
2018-06-08T09:13:42.648Z,8944
2018-06-08T09:14:08.147Z,8956
2018-06-08T09:14:33.674Z,8940
2018-06-08T09:14:59.228Z,8904
2018-06-08T09:15:24.739Z,8880
2018-06-08T09:15:50.296Z,8876
2018-06-08T09:16:15.784Z,8896
2018-06-08T09:16:41.288Z,8936
2018-06-08T09:17:06.782Z,8992
2018-06-08T09:17:32.285Z,9080
2018-06-08T09:17:57.753Z,9168
2018-06-08T09:18:23.257Z,9268
2018-06-08T09:18:48.735Z,9356
2018-06-08T09:19:14.256Z,9416
2018-06-08T09:20:33.194Z,9456
2018-06-08T09:20:58.682Z,9428
2018-06-08T09:21:24.177Z,9396
2018-06-08T09:21:49.672Z,9364
2018-06-08T09:22:15.177Z,9340
2018-06-08T09:22:40.718Z,9320
2018-06-08T09:23:06.180Z,9316
2018-06-08T09:23:31.682Z,9320
2018-06-08T09:23:57.232Z,9332
2018-06-08T09:24:22.730Z,9340
2018-06-08T09:24:48.290Z,9368
2018-06-08T09:25:13.797Z,9404
2018-06-08T09:25:39.301Z,9456
2018-06-08T09:26:04.792Z,9504
2018-06-08T09:26:30.268Z,9536
2018-06-08T09:26:55.768Z,9552
2018-06-08T09:27:21.245Z,9588
2018-06-08T09:27:46.725Z,9644
2018-06-08T09:28:12.233Z,9736
2018-06-08T09:28:37.751Z,9820
2018-06-08T09:29:03.232Z,9908
2018-06-08T09:29:28.720Z,9972
2018-06-08T09:29:54.227Z,10068
2018-06-08T09:30:19.724Z,10136
2018-06-08T09:30:45.279Z,10188
2018-06-08T09:31:10.753Z,10232
2018-06-08T09:31:36.253Z,10284
2018-06-08T09:32:01.767Z,10328
2018-06-08T09:32:27.240Z,10340
2018-06-08T09:32:52.719Z,10324
2018-06-08T09:33:18.201Z,10312
2018-06-08T09:33:43.700Z,10256
2018-06-08T09:34:09.182Z,10168
2018-06-08T09:34:34.688Z,10072
2018-06-08T09:35:00.177Z,9952
2018-06-08T09:35:25.681Z,9800
2018-06-08T09:35:51.155Z,9636
2018-06-08T09:36:16.661Z,9472
2018-06-08T09:36:42.136Z,9284
2018-06-08T09:37:07.637Z,9088
2018-06-08T09:37:33.140Z,8900
2018-06-08T09:37:58.687Z,8728
2018-06-08T09:38:24.232Z,8544
2018-06-08T09:38:49.786Z,8372
2018-06-08T09:39:15.259Z,8252
2018-06-08T09:39:40.754Z,8152
2018-06-08T09:40:06.234Z,8092
2018-06-08T09:40:31.725Z,8048
2018-06-08T09:40:57.245Z,8032
2018-06-08T09:41:22.643Z,8036
2018-06-08T09:41:48.162Z,8068
2018-06-08T09:42:13.613Z,8108
2018-06-08T09:42:39.072Z,8120
2018-06-08T09:43:04.609Z,8184
2018-06-08T09:43:30.051Z,8252
2018-06-08T09:43:55.539Z,8316
2018-06-08T09:44:20.992Z,8360
2018-06-08T09:44:46.458Z,8404
2018-06-08T09:45:11.942Z,8444
2018-06-08T09:45:37.451Z,8432
2018-06-08T09:46:02.895Z,8416
2018-06-08T09:46:28.436Z,8380
2018-06-08T09:46:53.900Z,8340
2018-06-08T09:47:19.362Z,8304
2018-06-08T09:47:44.836Z,8264
2018-06-08T09:48:10.296Z,8232
2018-06-08T09:48:35.789Z,8196
2018-06-08T09:49:01.295Z,8152
2018-06-08T09:49:26.778Z,8116
2018-06-08T09:49:52.296Z,8068
2018-06-08T09:50:17.764Z,8032
2018-06-08T09:50:43.223Z,7992
2018-06-08T09:51:08.737Z,7952
2018-06-08T09:51:34.253Z,7948
2018-06-08T09:51:59.675Z,7976
2018-06-08T09:52:25.171Z,8008
2018-06-08T09:52:50.646Z,8052
2018-06-08T09:53:16.094Z,8100
2018-06-08T09:53:41.578Z,8156
2018-06-08T09:54:07.045Z,8212
2018-06-08T09:54:32.477Z,8272
2018-06-08T09:54:57.986Z,8308
2018-06-08T09:55:23.427Z,8320
2018-06-08T09:55:48.898Z,8308
2018-06-08T09:56:14.396Z,8276
2018-06-08T09:56:39.909Z,8236